Time;durP1;ratioP1;P1;durP2;ratioP2;P2;SDS_P1;SDS_P2;PMS_P1;PMS_P2;Temp;Humidity;BMP_temperature;BMP_pressure;BME280_temperature;BME280_humidity;BME280_pressure;Samples;Min_cycle;Max_cycle;Signal;HPM_P1;HPM_P2
2024/01/21 00:00:11;;;;;;;10.80;8.45;;;1.20;99.90;;;;;;5028203;28;20490;-76
2024/01/21 00:02:40;;;;;;;8.32;7.30;;;1.10;99.90;;;;;;5029726;28;20033;-75
2024/01/21 00:05:08;;;;;;;8.82;7.45;;;1.10;99.90;;;;;;5028871;28;20497;-72
2024/01/21 00:07:38;;;;;;;8.25;7.40;;;1.00;99.90;;;;;;5027902;28;20035;-74
2024/01/21 00:10:08;;;;;;;8.63;7.32;;;1.00;99.90;;;;;;5028538;28;20065;-73
2024/01/21 00:12:36;;;;;;;11.18;8.52;;;1.00;99.90;;;;;;5044311;28;20381;-76
2024/01/21 00:15:05;;;;;;;7.47;6.43;;;1.00;99.90;;;;;;5047483;28;20033;-74
2024/01/21 00:17:32;;;;;;;10.73;8.30;;;0.90;99.90;;;;;;5049899;28;20037;-76
2024/01/21 00:20:00;;;;;;;10.35;8.52;;;1.00;99.90;;;;;;5044443;28;20573;-74
2024/01/21 00:22:27;;;;;;;10.13;8.57;;;1.00;99.90;;;;;;5047900;28;20061;-74
2024/01/21 00:24:54;;;;;;;11.75;9.05;;;1.00;99.90;;;;;;5031824;28;20025;-74
2024/01/21 00:27:22;;;;;;;9.88;7.75;;;0.90;99.90;;;;;;5029717;28;20033;-74
2024/01/21 00:29:49;;;;;;;9.70;7.72;;;0.90;99.90;;;;;;5047847;28;20032;-75
2024/01/21 00:32:17;;;;;;;8.80;7.95;;;0.90;99.90;;;;;;5031443;28;20045;-73
2024/01/21 00:34:44;;;;;;;9.90;7.93;;;1.00;99.90;;;;;;5046415;28;20048;-73
2024/01/21 00:37:11;;;;;;;9.45;7.63;;;1.10;99.90;;;;;;5048278;28;20029;-74
2024/01/21 00:39:39;;;;;;;8.90;7.63;;;1.10;99.90;;;;;;5046137;28;20047;-73
2024/01/21 00:42:06;;;;;;;8.45;7.60;;;1.00;99.90;;;;;;5047199;28;20136;-75
2024/01/21 00:44:36;;;;;;;8.48;7.57;;;1.00;99.90;;;;;;5031458;28;20032;-73
2024/01/21 00:47:04;;;;;;;7.03;6.35;;;1.10;99.90;;;;;;5048568;28;20045;-74
2024/01/21 00:49:31;;;;;;;8.43;7.32;;;1.10;99.90;;;;;;5047116;28;20041;-74
2024/01/21 00:51:59;;;;;;;9.88;8.07;;;1.10;99.90;;;;;;5028473;28;20451;-75
2024/01/21 00:54:26;;;;;;;11.45;7.65;;;1.20;99.90;;;;;;5026964;28;20038;-72
2024/01/21 00:56:54;;;;;;;8.45;7.57;;;1.20;99.90;;;;;;5045867;28;20040;-73
2024/01/21 00:59:21;;;;;;;9.68;7.30;;;1.10;99.90;;;;;;5047089;28;20051;-74
2024/01/21 01:01:49;;;;;;;8.77;7.88;;;1.20;99.90;;;;;;5046765;28;20033;-73
2024/01/21 01:04:16;;;;;;;10.40;7.55;;;1.20;99.90;;;;;;5043911;28;20495;-72
2024/01/21 01:06:45;;;;;;;8.00;7.20;;;1.20;99.90;;;;;;5045903;28;20064;-73
2024/01/21 01:09:13;;;;;;;8.38;7.43;;;1.20;99.90;;;;;;5044283;28;20482;-72
2024/01/21 01:11:40;;;;;;;7.10;6.40;;;1.20;99.90;;;;;;5031393;28;20051;-72
2024/01/21 01:14:08;;;;;;;7.60;6.80;;;1.30;99.90;;;;;;5047286;28;20033;-74
2024/01/21 01:16:39;;;;;;;8.52;7.18;;;1.20;99.90;;;;;;5047235;28;20111;-72
2024/01/21 01:19:09;;;;;;;8.70;6.97;;;1.30;99.90;;;;;;5029338;28;20033;-74
2024/01/21 01:21:37;;;;;;;8.23;7.28;;;1.30;99.90;;;;;;5047966;28;20045;-74
2024/01/21 01:24:05;;;;;;;9.02;7.85;;;1.30;99.90;;;;;;5048703;28;20095;-73
2024/01/21 01:26:32;;;;;;;8.57;7.03;;;1.40;99.90;;;;;;5024699;28;20547;-76
2024/01/21 01:29:00;;;;;;;9.98;7.32;;;1.40;99.90;;;;;;5030084;28;20120;-73
2024/01/21 01:31:27;;;;;;;7.22;6.50;;;1.40;99.90;;;;;;5044657;28;20519;-73
2024/01/21 01:33:54;;;;;;;7.32;6.63;;;1.40;99.90;;;;;;5047454;28;20069;-72
2024/01/21 01:36:22;;;;;;;9.98;7.55;;;1.40;99.90;;;;;;5028010;28;20061;-74
2024/01/21 01:38:50;;;;;;;7.68;6.82;;;1.50;99.90;;;;;;5050928;28;20064;-72
2024/01/21 01:41:55;;;;;;;9.80;7.30;;;1.40;99.90;;;;;;5052351;28;20044;-72
2024/01/21 01:44:22;;;;;;;8.95;7.40;;;1.50;99.90;;;;;;5046962;28;20030;-76
2024/01/21 01:46:50;;;;;;;9.80;7.13;;;1.40;99.90;;;;;;5033244;28;20033;-74
2024/01/21 01:49:18;;;;;;;7.15;6.45;;;1.50;99.90;;;;;;5051283;28;20371;-73
2024/01/21 01:51:46;;;;;;;7.60;6.80;;;1.50;99.90;;;;;;5048143;28;20042;-73
2024/01/21 01:54:16;;;;;;;8.75;6.90;;;1.40;99.90;;;;;;5028560;28;20419;-74
2024/01/21 01:56:44;;;;;;;9.80;6.82;;;1.40;99.90;;;;;;5049193;28;20048;-73
2024/01/21 01:59:13;;;;;;;8.65;7.10;;;1.60;99.90;;;;;;5033380;28;20033;-72
2024/01/21 02:01:40;;;;;;;8.52;7.50;;;1.60;99.90;;;;;;5050581;28;20466;-75
2024/01/21 02:04:09;;;;;;;7.72;6.93;;;1.60;99.90;;;;;;5050263;28;20527;-74
2024/01/21 02:06:37;;;;;;;8.43;6.95;;;1.60;99.90;;;;;;5046931;28;20078;-72
2024/01/21 02:09:05;;;;;;;7.50;6.70;;;1.60;99.90;;;;;;5049676;28;20120;-72
2024/01/21 02:11:32;;;;;;;8.48;7.55;;;1.50;99.90;;;;;;5051315;28;20120;-73
2024/01/21 02:14:00;;;;;;;7.70;6.90;;;1.50;99.90;;;;;;5051228;28;20041;-72
2024/01/21 02:16:28;;;;;;;8.60;7.35;;;1.50;99.90;;;;;;5049257;28;20037;-72
2024/01/21 02:18:55;;;;;;;7.65;6.85;;;1.50;99.90;;;;;;5050810;28;20029;-72
2024/01/21 02:21:23;;;;;;;7.07;6.38;;;1.60;99.90;;;;;;5030924;28;20551;-72
2024/01/21 02:23:50;;;;;;;8.05;6.93;;;1.60;99.90;;;;;;5049215;28;20051;-71
2024/01/21 02:26:18;;;;;;;7.78;6.53;;;1.60;99.90;;;;;;5035511;28;20495;-76
2024/01/21 02:28:45;;;;;;;8.40;6.90;;;1.60;99.90;;;;;;5049495;28;20042;-72
2024/01/21 02:31:13;;;;;;;7.57;6.72;;;1.60;99.90;;;;;;5045523;28;20491;-72
2024/01/21 02:33:42;;;;;;;7.50;6.78;;;1.70;99.90;;;;;;5045518;28;20417;-72
2024/01/21 02:36:09;;;;;;;7.85;7.03;;;1.60;99.90;;;;;;5051638;28;20476;-71
2024/01/21 02:38:37;;;;;;;7.35;6.65;;;1.60;99.90;;;;;;5027264;28;20064;-72
2024/01/21 02:41:04;;;;;;;9.88;6.60;;;1.60;99.90;;;;;;5044836;28;20907;-73
2024/01/21 02:43:31;;;;;;;7.45;6.65;;;1.50;99.90;;;;;;5050648;28;20435;-74
2024/01/21 02:45:59;;;;;;;10.43;7.20;;;1.50;99.90;;;;;;5033544;28;20048;-75
2024/01/21 02:48:26;;;;;;;8.85;7.22;;;1.60;99.90;;;;;;5047308;28;20033;-72
2024/01/21 02:50:53;;;;;;;8.63;6.63;;;1.50;99.90;;;;;;5045787;28;20036;-74
2024/01/21 02:53:21;;;;;;;7.97;7.18;;;1.50;99.90;;;;;;5050066;28;20546;-74
2024/01/21 02:55:48;;;;;;;8.13;6.88;;;1.60;99.90;;;;;;5051427;28;20041;-73
2024/01/21 02:58:15;;;;;;;7.30;6.60;;;1.50;99.90;;;;;;5049102;28;20436;-72
2024/01/21 03:00:43;;;;;;;6.93;6.32;;;1.50;99.90;;;;;;5047441;28;20374;-71
2024/01/21 03:03:10;;;;;;;8.80;7.07;;;1.50;99.90;;;;;;5048558;28;20048;-74
2024/01/21 03:05:38;;;;;;;7.43;6.63;;;1.50;99.90;;;;;;5045755;28;20033;-73
2024/01/21 03:08:12;;;;;;;9.68;7.00;;;1.50;99.90;;;;;;5048512;28;20051;-72
2024/01/21 03:10:41;;;;;;;7.38;6.55;;;1.50;99.90;;;;;;5048964;28;20037;-74
2024/01/21 03:13:10;;;;;;;8.82;6.45;;;1.50;99.90;;;;;;5047281;28;20037;-73
2024/01/21 03:15:37;;;;;;;7.10;6.50;;;1.60;99.90;;;;;;5050969;28;20037;-72
2024/01/21 03:18:05;;;;;;;7.97;7.18;;;1.50;99.90;;;;;;5050104;28;20047;-74
2024/01/21 03:20:32;;;;;;;7.45;6.63;;;1.50;99.90;;;;;;5030659;28;20422;-72
2024/01/21 03:22:59;;;;;;;8.25;7.15;;;1.50;99.90;;;;;;5045805;28;20041;-73
2024/01/21 03:25:27;;;;;;;8.63;7.05;;;1.50;99.90;;;;;;5051142;28;20029;-72
2024/01/21 03:27:54;;;;;;;8.38;6.63;;;1.50;99.90;;;;;;5045367;28;20066;-73
2024/01/21 03:30:22;;;;;;;7.50;6.70;;;1.50;99.90;;;;;;5032381;28;20041;-70
2024/01/21 03:32:49;;;;;;;7.65;6.38;;;1.60;99.90;;;;;;5045429;28;20040;-73
2024/01/21 03:35:18;;;;;;;8.60;6.60;;;1.60;99.90;;;;;;5032532;28;20071;-72
2024/01/21 03:37:45;;;;;;;7.95;6.97;;;1.60;99.90;;;;;;5047593;28;20041;-72
2024/01/21 03:40:13;;;;;;;8.57;7.00;;;1.50;99.90;;;;;;5048829;28;20112;-72
2024/01/21 03:42:40;;;;;;;7.55;6.20;;;1.50;99.90;;;;;;5047710;28;20060;-73
2024/01/21 03:45:07;;;;;;;9.18;6.70;;;1.50;99.90;;;;;;5050378;28;20410;-71
2024/01/21 03:47:35;;;;;;;6.90;6.20;;;1.50;99.90;;;;;;5044002;28;20128;-72
2024/01/21 03:50:03;;;;;;;7.57;6.57;;;1.50;99.90;;;;;;5050067;28;20056;-74
2024/01/21 03:52:30;;;;;;;9.23;7.57;;;1.50;99.90;;;;;;5049178;28;20033;-72
2024/01/21 03:54:58;;;;;;;7.82;7.03;;;1.50;99.90;;;;;;5048802;28;20475;-71
2024/01/21 03:57:26;;;;;;;7.07;6.47;;;1.50;99.90;;;;;;5049281;28;20036;-72
2024/01/21 03:59:53;;;;;;;7.63;6.90;;;1.50;99.90;;;;;;5049649;28;20450;-72
2024/01/21 04:02:23;;;;;;;8.07;6.53;;;1.50;99.90;;;;;;5049108;28;20091;-74
2024/01/21 04:04:53;;;;;;;9.95;6.50;;;1.40;99.90;;;;;;5032177;28;20136;-73
2024/01/21 04:07:21;;;;;;;8.13;6.53;;;1.50;99.90;;;;;;5047902;28;20033;-72
2024/01/21 04:09:49;;;;;;;8.15;6.70;;;1.50;99.90;;;;;;5048338;28;20472;-71
2024/01/21 04:12:17;;;;;;;8.55;6.65;;;1.50;99.90;;;;;;5048161;28;20472;-73
2024/01/21 04:14:44;;;;;;;7.55;6.18;;;1.50;99.90;;;;;;5048824;28;21275;-70
2024/01/21 04:17:12;;;;;;;8.20;6.90;;;1.50;99.90;;;;;;5048936;28;20430;-73
2024/01/21 04:19:40;;;;;;;6.70;5.97;;;1.50;99.90;;;;;;5046280;28;20373;-70
2024/01/21 04:22:07;;;;;;;6.82;6.20;;;1.50;99.90;;;;;;5049326;28;20059;-73
2024/01/21 04:24:34;;;;;;;7.32;6.53;;;1.50;99.90;;;;;;5049362;28;20491;-72
2024/01/21 04:27:02;;;;;;;7.20;6.45;;;1.40;99.90;;;;;;5049801;28;20040;-71
2024/01/21 04:29:29;;;;;;;7.05;5.90;;;1.50;99.90;;;;;;5027758;28;20045;-71
2024/01/21 04:31:57;;;;;;;6.55;5.60;;;1.50;99.90;;;;;;5044554;28;20041;-72
2024/01/21 04:34:24;;;;;;;7.28;6.57;;;1.40;99.90;;;;;;5046990;28;20416;-71
2024/01/21 04:36:52;;;;;;;6.95;6.25;;;1.40;99.90;;;;;;5029117;28;20080;-72
2024/01/21 04:39:21;;;;;;;7.25;6.47;;;1.40;99.90;;;;;;5030503;28;20383;-72
2024/01/21 04:41:49;;;;;;;6.90;6.27;;;1.40;99.90;;;;;;5028577;28;20041;-72
2024/01/21 04:44:16;;;;;;;7.70;6.80;;;1.40;99.90;;;;;;5044064;28;20084;-71
2024/01/21 04:46:44;;;;;;;7.25;6.35;;;1.40;99.90;;;;;;5048710;28;20071;-71
2024/01/21 04:49:11;;;;;;;7.70;6.30;;;1.40;99.90;;;;;;5047582;28;20220;-74
2024/01/21 04:51:39;;;;;;;8.52;6.78;;;1.30;99.90;;;;;;5046275;28;20037;-74
2024/01/21 04:54:06;;;;;;;8.38;6.80;;;1.40;99.90;;;;;;5049487;28;20093;-73
2024/01/21 04:56:33;;;;;;;8.38;6.70;;;1.30;99.90;;;;;;5048092;28;20383;-73
2024/01/21 04:59:01;;;;;;;7.03;6.30;;;1.20;99.90;;;;;;5048558;28;20060;-74
2024/01/21 05:01:28;;;;;;;7.80;6.30;;;1.20;99.90;;;;;;5046056;28;20063;-72
2024/01/21 05:03:56;;;;;;;6.97;6.28;;;1.20;99.90;;;;;;5049088;28;20554;-72
2024/01/21 05:06:23;;;;;;;7.00;6.20;;;1.20;99.90;;;;;;5031782;28;20603;-71
2024/01/21 05:08:51;;;;;;;6.78;5.88;;;1.20;99.90;;;;;;5049053;28;20557;-71
2024/01/21 05:11:18;;;;;;;7.30;5.65;;;1.20;99.90;;;;;;5049088;28;20095;-72
2024/01/21 05:13:46;;;;;;;7.35;6.57;;;1.20;99.90;;;;;;5050474;28;20415;-71
2024/01/21 05:16:18;;;;;;;6.25;5.65;;;1.20;99.90;;;;;;5053223;28;20037;-72
2024/01/21 05:18:46;;;;;;;7.43;6.53;;;1.20;99.90;;;;;;5035554;28;20033;-72
2024/01/21 05:21:20;;;;;;;6.90;6.20;;;1.20;99.90;;;;;;5034151;28;20121;-73
2024/01/21 05:23:51;;;;;;;7.40;6.65;;;1.10;99.90;;;;;;5033593;28;20048;-73
2024/01/21 05:26:18;;;;;;;7.95;6.55;;;1.20;99.90;;;;;;5052735;28;20033;-68
2024/01/21 05:28:46;;;;;;;8.55;6.05;;;1.20;99.90;;;;;;5053125;28;20399;-71
2024/01/21 05:31:14;;;;;;;6.75;6.03;;;1.10;99.90;;;;;;5049196;28;20128;-73
2024/01/21 05:33:42;;;;;;;7.43;6.63;;;1.00;99.90;;;;;;5053130;28;20047;-72
2024/01/21 05:36:10;;;;;;;9.95;6.25;;;1.00;99.90;;;;;;5052173;28;20053;-73
2024/01/21 05:38:37;;;;;;;7.20;5.90;;;1.00;99.90;;;;;;5052243;28;20065;-75
2024/01/21 05:41:05;;;;;;;6.75;6.00;;;1.00;99.90;;;;;;5049670;28;20033;-73
2024/01/21 05:43:32;;;;;;;7.57;6.22;;;0.90;99.90;;;;;;5051613;28;20090;-71
2024/01/21 05:46:00;;;;;;;7.40;6.47;;;0.90;99.90;;;;;;5051715;28;20082;-71
2024/01/21 05:48:27;;;;;;;6.43;5.82;;;0.90;99.90;;;;;;5052848;28;20404;-71
2024/01/21 05:50:55;;;;;;;6.68;6.00;;;1.00;99.90;;;;;;5027564;28;20472;-74
2024/01/21 05:53:22;;;;;;;6.78;6.07;;;0.90;99.90;;;;;;5051572;28;20036;-72
2024/01/21 05:55:49;;;;;;;6.55;5.93;;;1.00;99.90;;;;;;5049213;28;20060;-73
2024/01/21 05:58:17;;;;;;;7.85;7.05;;;0.90;99.90;;;;;;5052109;28;20128;-72
2024/01/21 06:00:44;;;;;;;7.60;6.65;;;1.00;99.90;;;;;;5050978;28;20025;-73
2024/01/21 06:03:12;;;;;;;6.97;6.32;;;1.00;99.90;;;;;;5052342;28;20040;-73
2024/01/21 06:05:39;;;;;;;8.40;6.28;;;0.80;99.90;;;;;;5047895;28;20424;-71
2024/01/21 06:08:07;;;;;;;6.97;6.00;;;0.80;99.90;;;;;;5047121;28;20033;-73
2024/01/21 06:10:34;;;;;;;7.40;6.10;;;0.80;99.90;;;;;;5052366;28;20045;-75
2024/01/21 06:13:01;;;;;;;9.57;6.15;;;0.80;99.90;;;;;;5051859;28;20061;-73
2024/01/21 06:15:28;;;;;;;8.27;6.47;;;0.90;99.90;;;;;;5047689;28;20470;-74
2024/01/21 06:17:56;;;;;;;9.40;6.57;;;0.80;99.90;;;;;;5051271;28;20422;-75
2024/01/21 06:20:23;;;;;;;8.18;6.95;;;0.90;99.90;;;;;;5051203;28;20072;-74
2024/01/21 06:22:50;;;;;;;6.07;5.50;;;0.80;99.90;;;;;;5051833;28;20033;-73
2024/01/21 06:25:18;;;;;;;7.10;6.40;;;0.80;99.90;;;;;;5047157;28;20060;-74
2024/01/21 06:27:45;;;;;;;7.80;6.93;;;0.80;99.90;;;;;;5050551;28;20053;-72
2024/01/21 06:30:21;;;;;;;5.97;5.47;;;0.80;99.90;;;;;;5052066;28;20033;-74
2024/01/21 06:32:48;;;;;;;6.32;5.72;;;0.80;99.90;;;;;;5051420;28;20379;-72
2024/01/21 06:35:29;;;;;;;8.48;6.35;;;0.80;99.90;;;;;;5031572;28;20025;-73
2024/01/21 06:37:56;;;;;;;7.25;6.43;;;0.80;99.90;;;;;;5052367;28;20353;-74
2024/01/21 06:40:24;;;;;;;8.52;6.05;;;0.80;99.90;;;;;;5050133;28;20052;-74
2024/01/21 06:42:51;;;;;;;6.63;6.03;;;0.80;99.90;;;;;;5051768;28;20060;-73
2024/01/21 06:45:19;;;;;;;7.68;6.45;;;0.80;99.90;;;;;;5050878;28;20052;-73
2024/01/21 06:47:46;;;;;;;7.00;6.32;;;0.80;99.90;;;;;;5051233;28;20033;-74
2024/01/21 06:50:14;;;;;;;7.38;6.65;;;0.90;99.90;;;;;;5049552;28;20699;-73
2024/01/21 06:52:41;;;;;;;6.63;6.03;;;0.80;99.90;;;;;;5051706;28;20402;-73
2024/01/21 06:55:09;;;;;;;6.63;6.03;;;0.90;99.90;;;;;;5050857;28;20545;-74
2024/01/21 06:57:38;;;;;;;7.72;6.60;;;0.80;99.90;;;;;;5048628;28;20543;-73
2024/01/21 07:00:06;;;;;;;7.32;6.57;;;1.00;99.90;;;;;;5050350;28;20029;-72
2024/01/21 07:02:33;;;;;;;9.20;6.55;;;1.00;99.90;;;;;;5046772;28;20037;-70
2024/01/21 07:05:01;;;;;;;7.38;6.68;;;1.00;99.90;;;;;;5044828;28;20037;-72
2024/01/21 07:07:28;;;;;;;6.45;5.82;;;1.00;99.90;;;;;;5046149;28;20091;-73
2024/01/21 07:09:55;;;;;;;6.97;6.20;;;1.10;99.90;;;;;;5044829;28;20460;-72
2024/01/21 07:12:23;;;;;;;7.28;6.53;;;1.00;99.90;;;;;;5048208;28;20080;-73
2024/01/21 07:14:53;;;;;;;7.07;6.20;;;1.00;99.90;;;;;;5046823;28;20115;-73
2024/01/21 07:17:21;;;;;;;;;;;1.10;99.90;;;;;;5047504;28;20397;-72
2024/01/21 07:19:52;;;;;;;6.45;5.85;;;1.10;99.90;;;;;;5048131;28;19974;-72
2024/01/21 07:22:20;;;;;;;6.80;6.10;;;1.10;99.90;;;;;;5050463;28;20112;-72
2024/01/21 07:24:48;;;;;;;8.05;6.40;;;1.20;99.90;;;;;;5047581;28;20483;-73
2024/01/21 07:27:15;;;;;;;7.45;6.68;;;1.20;99.70;;;;;;5050617;28;20032;-71
2024/01/21 07:29:43;;;;;;;7.30;6.40;;;1.30;99.90;;;;;;5046550;28;20049;-73
2024/01/21 07:32:10;;;;;;;8.45;6.82;;;1.40;99.70;;;;;;5045425;28;20031;-73
2024/01/21 07:34:37;;;;;;;8.48;6.60;;;1.40;99.60;;;;;;5050997;28;20033;-74
2024/01/21 07:37:05;;;;;;;7.70;6.45;;;1.30;99.40;;;;;;5047316;28;20033;-73
2024/01/21 07:39:32;;;;;;;7.65;6.68;;;1.50;99.70;;;;;;5049343;28;20135;-74
2024/01/21 07:42:00;;;;;;;7.20;6.43;;;1.60;99.00;;;;;;5047490;28;20376;-72
2024/01/21 07:44:27;;;;;;;8.00;6.90;;;1.60;98.80;;;;;;5048120;28;20039;-73
2024/01/21 07:46:54;;;;;;;8.07;6.10;;;1.60;98.70;;;;;;5048522;28;20103;-74
2024/01/21 07:49:22;;;;;;;8.25;6.50;;;1.80;98.70;;;;;;5029733;28;20476;-74
2024/01/21 07:51:49;;;;;;;7.60;6.63;;;2.00;98.80;;;;;;5050137;28;20443;-71
2024/01/21 07:54:17;;;;;;;7.32;6.60;;;1.80;98.50;;;;;;5031832;28;20388;-74
2024/01/21 07:56:44;;;;;;;7.35;6.55;;;2.00;98.60;;;;;;5044098;28;20120;-73
2024/01/21 07:59:12;;;;;;;7.68;6.03;;;2.00;98.40;;;;;;5049709;28;20039;-72
2024/01/21 08:01:39;;;;;;;8.55;6.38;;;1.70;97.80;;;;;;5039044;28;20124;-73
2024/01/21 08:04:08;;;;;;;8.32;7.20;;;1.80;97.70;;;;;;5046702;28;20101;-72
2024/01/21 08:06:35;;;;;;;7.38;6.15;;;2.00;97.70;;;;;;5046421;28;20036;-73
2024/01/21 08:09:03;;;;;;;25.85;15.60;;;2.20;97.80;;;;;;5032296;28;20037;-75
2024/01/21 08:11:31;;;;;;;12.13;9.43;;;2.60;98.60;;;;;;5045259;28;20041;-75
2024/01/21 08:13:58;;;;;;;11.27;8.68;;;2.60;96.80;;;;;;5032739;28;20524;-73
2024/01/21 08:16:26;;;;;;;17.10;11.02;;;2.10;97.00;;;;;;5049086;28;20106;-75
2024/01/21 08:18:53;;;;;;;9.63;7.82;;;2.20;97.10;;;;;;5050240;28;20056;-74
2024/01/21 08:21:21;;;;;;;7.82;6.53;;;2.30;97.40;;;;;;5030616;28;20085;-73
2024/01/21 08:23:48;;;;;;;8.70;7.15;;;2.50;96.50;;;;;;5048961;28;20461;-74
2024/01/21 08:26:19;;;;;;;7.03;6.32;;;2.60;96.90;;;;;;5047766;28;20714;-73
2024/01/21 08:28:46;;;;;;;8.07;6.50;;;2.40;96.60;;;;;;5048430;28;20041;-74
2024/01/21 08:31:17;;;;;;;7.50;6.32;;;2.20;96.60;;;;;;5030340;28;20120;-73
2024/01/21 08:33:47;;;;;;;7.53;6.30;;;2.30;96.60;;;;;;5048672;28;20485;-74
2024/01/21 08:36:14;;;;;;;8.55;6.80;;;2.20;96.80;;;;;;5044403;28;20026;-75
2024/01/21 08:38:42;;;;;;;7.88;6.72;;;2.50;97.00;;;;;;5046893;28;20041;-75
2024/01/21 08:41:09;;;;;;;14.73;10.88;;;2.80;96.50;;;;;;5047573;28;20037;-75
2024/01/21 08:43:40;;;;;;;14.10;9.20;;;2.90;97.10;;;;;;5028269;28;20067;-75
2024/01/21 08:46:10;;;;;;;18.55;12.77;;;2.90;96.50;;;;;;5048366;28;20025;-74
2024/01/21 08:48:40;;;;;;;7.70;6.72;;;3.20;97.10;;;;;;5029099;28;20557;-73
2024/01/21 08:51:08;;;;;;;8.13;6.87;;;3.30;95.70;;;;;;5045027;28;20043;-74
2024/01/21 08:53:35;;;;;;;7.70;6.40;;;3.50;96.00;;;;;;5047617;28;20024;-73
2024/01/21 08:56:03;;;;;;;9.75;7.65;;;3.80;95.80;;;;;;5042668;28;20033;-74
2024/01/21 08:58:30;;;;;;;7.72;6.70;;;3.90;94.90;;;;;;5020422;28;20040;-74
2024/01/21 09:00:57;;;;;;;7.82;6.95;;;4.10;94.90;;;;;;5045988;28;20033;-76
2024/01/21 09:03:34;;;;;;;8.30;6.82;;;4.10;94.80;;;;;;5043522;28;20040;-73
2024/01/21 09:06:02;;;;;;;10.50;7.95;;;4.50;94.20;;;;;;5039963;28;20041;-72
2024/01/21 09:08:29;;;;;;;8.73;7.45;;;4.40;93.60;;;;;;5036581;28;20091;-73
2024/01/21 09:10:57;;;;;;;8.07;7.07;;;4.60;93.90;;;;;;5014705;28;20053;-73
2024/01/21 09:13:24;;;;;;;8.90;6.78;;;4.20;93.30;;;;;;5048144;28;20442;-74
2024/01/21 09:15:51;;;;;;;8.57;6.65;;;4.20;93.30;;;;;;5039172;28;20048;-77
2024/01/21 09:18:19;;;;;;;9.43;6.80;;;4.20;93.90;;;;;;5036770;28;20029;-74
2024/01/21 09:20:46;;;;;;;8.65;7.20;;;4.30;93.40;;;;;;5039500;28;20104;-74
2024/01/21 09:23:14;;;;;;;8.75;6.95;;;4.70;93.60;;;;;;5032342;28;20064;-72
2024/01/21 09:25:41;;;;;;;10.15;7.50;;;4.80;92.80;;;;;;5029889;28;20033;-72
2024/01/21 09:28:09;;;;;;;9.45;7.13;;;4.90;91.70;;;;;;5039721;28;20090;-73
2024/01/21 09:30:36;;;;;;;9.00;6.60;;;4.40;92.70;;;;;;5018537;28;20423;-75
2024/01/21 09:33:04;;;;;;;7.60;6.38;;;4.50;92.30;;;;;;5031236;28;20061;-76
2024/01/21 09:35:31;;;;;;;7.10;6.40;;;4.40;92.60;;;;;;5031276;28;20034;-74
2024/01/21 09:37:58;;;;;;;9.38;7.15;;;4.80;92.20;;;;;;5024873;28;20428;-74
2024/01/21 09:40:26;;;;;;;7.72;6.75;;;4.30;91.90;;;;;;5037911;28;20777;-74
2024/01/21 09:42:54;;;;;;;8.77;7.03;;;4.30;91.70;;;;;;5045199;28;20468;-75
2024/01/21 09:45:23;;;;;;;52.45;28.70;;;4.60;91.80;;;;;;5040010;28;20057;-77
2024/01/21 09:47:54;;;;;;;24.52;16.58;;;5.50;94.60;;;;;;5041816;28;20042;-75
2024/01/21 09:50:22;;;;;;;10.13;8.45;;;5.50;91.60;;;;;;5036214;28;20196;-73
2024/01/21 09:52:53;;;;;;;10.93;7.95;;;5.80;91.30;;;;;;5031864;28;20452;-76
2024/01/21 09:55:22;;;;;;;9.00;6.53;;;6.00;90.60;;;;;;5049006;28;20031;-75
2024/01/21 09:57:50;;;;;;;8.77;6.80;;;5.30;90.30;;;;;;5049009;28;20120;-74
2024/01/21 10:00:18;;;;;;;9.32;7.15;;;5.70;90.40;;;;;;5051786;28;20140;-73
2024/01/21 10:02:48;;;;;;;8.77;6.60;;;5.00;90.20;;;;;;5052499;28;20036;-73
2024/01/21 10:05:15;;;;;;;7.13;6.22;;;5.00;90.80;;;;;;5052654;28;20029;-74
2024/01/21 10:07:43;;;;;;;7.60;6.28;;;4.90;90.90;;;;;;5052725;28;20091;-74
2024/01/21 10:10:12;;;;;;;9.23;6.90;;;5.10;90.90;;;;;;5051569;28;20119;-73
2024/01/21 10:12:41;;;;;;;7.72;6.60;;;5.40;89.90;;;;;;5030761;28;20049;-74
2024/01/21 10:15:12;;;;;;;7.82;7.00;;;5.70;89.30;;;;;;5043821;28;20112;-74
2024/01/21 10:17:42;;;;;;;9.52;6.47;;;6.30;89.90;;;;;;5032714;28;20051;-74
2024/01/21 10:20:12;;;;;;;10.15;6.40;;;6.60;87.20;;;;;;5034276;28;20578;-75
2024/01/21 10:22:41;;;;;;;7.88;6.53;;;6.50;86.10;;;;;;5052322;28;20044;-74
2024/01/21 10:25:12;;;;;;;9.00;6.50;;;6.70;85.50;;;;;;5046042;28;20078;-74
2024/01/21 10:27:40;;;;;;;10.48;6.88;;;6.60;87.00;;;;;;5048712;28;20036;-73
2024/01/21 10:30:12;;;;;;;7.68;6.35;;;6.10;86.30;;;;;;5048496;28;20041;-74
2024/01/21 10:32:40;;;;;;;8.80;7.03;;;5.60;87.20;;;;;;5043293;28;20431;-78
2024/01/21 10:35:07;;;;;;;8.38;6.70;;;6.20;87.30;;;;;;5047835;28;20107;-74
2024/01/21 10:37:39;;;;;;;7.95;6.53;;;6.70;86.60;;;;;;5036387;28;20040;-74
2024/01/21 10:40:09;;;;;;;8.98;6.30;;;6.70;86.40;;;;;;5030844;28;20082;-74
2024/01/21 10:42:36;;;;;;;8.43;6.40;;;5.60;85.80;;;;;;5040698;28;20120;-74
2024/01/21 10:45:05;;;;;;;11.77;7.00;;;5.30;86.50;;;;;;5049328;28;20036;-74
2024/01/21 10:47:34;;;;;;;9.18;6.68;;;5.50;87.00;;;;;;5044004;28;20127;-74
2024/01/21 10:50:06;;;;;;;9.52;7.00;;;6.30;85.30;;;;;;5033965;28;20444;-74
2024/01/21 10:52:35;;;;;;;7.15;6.40;;;6.80;85.60;;;;;;5044718;28;20032;-73
2024/01/21 10:55:03;;;;;;;9.02;7.28;;;7.50;84.40;;;;;;5042694;28;20072;-74
2024/01/21 10:57:30;;;;;;;12.80;7.82;;;7.10;85.00;;;;;;5027199;28;20119;-75
2024/01/21 10:59:58;;;;;;;8.88;6.80;;;7.50;84.50;;;;;;5041069;28;20029;-74
2024/01/21 11:02:28;;;;;;;8.70;6.57;;;7.40;81.90;;;;;;5044970;28;20507;-75
2024/01/21 11:04:55;;;;;;;8.90;6.90;;;7.10;82.20;;;;;;5043361;28;20047;-73
2024/01/21 11:07:24;;;;;;;8.68;6.45;;;7.90;81.30;;;;;;5044601;28;20029;-75
2024/01/21 11:09:56;;;;;;;8.52;6.50;;;8.50;79.80;;;;;;5046602;28;20059;-74
2024/01/21 11:12:23;;;;;;;8.13;6.38;;;8.90;78.10;;;;;;5033948;28;20103;-73
2024/01/21 11:14:51;;;;;;;6.32;5.47;;;10.80;76.20;;;;;;5041689;28;21722;-73
2024/01/21 11:17:18;;;;;;;12.18;8.63;;;11.60;70.00;;;;;;5037777;28;20476;-73
2024/01/21 11:19:55;;;;;;;8.10;6.13;;;12.90;68.90;;;;;;5038569;28;20372;-73
2024/01/21 11:22:25;;;;;;;14.43;10.27;;;11.00;70.20;;;;;;5047525;28;20048;-73
2024/01/21 11:24:55;;;;;;;15.90;9.60;;;11.20;69.00;;;;;;5032537;28;20041;-74
2024/01/21 11:27:29;;;;;;;10.32;6.28;;;10.10;70.70;;;;;;5038919;28;20029;-75
2024/01/21 11:30:01;;;;;;;10.30;7.25;;;8.80;72.00;;;;;;5039666;28;20033;-77
2024/01/21 11:32:30;;;;;;;9.60;7.18;;;11.30;72.00;;;;;;5043860;28;20036;-75
2024/01/21 11:35:14;;;;;;;88.18;49.33;;;12.20;65.20;;;;;;5042826;28;20050;-73
2024/01/21 11:37:45;;;;;;;39.80;28.92;;;12.70;66.70;;;;;;5049093;28;20095;-75
2024/01/21 11:40:12;;;;;;;46.77;32.80;;;12.40;65.20;;;;;;5034538;28;20416;-76
2024/01/21 11:42:41;;;;;;;12.88;9.13;;;12.10;64.80;;;;;;5048331;28;20768;-71
2024/01/21 11:45:09;;;;;;;9.38;5.32;;;10.30;66.00;;;;;;5043531;28;20051;-73
2024/01/21 11:47:37;;;;;;;9.60;5.57;;;7.40;71.10;;;;;;5046048;28;20354;-72
2024/01/21 11:50:05;;;;;;;7.07;5.35;;;6.60;71.60;;;;;;5045804;28;20034;-73
2024/01/21 11:52:36;;;;;;;8.90;5.65;;;7.00;72.40;;;;;;5032904;28;20430;-74
2024/01/21 11:55:04;;;;;;;9.57;5.60;;;8.10;71.50;;;;;;5036079;28;20507;-75
2024/01/21 11:57:32;;;;;;;7.75;5.65;;;7.40;71.20;;;;;;5043191;28;20458;-74
2024/01/21 11:59:59;;;;;;;7.63;6.00;;;7.40;71.40;;;;;;5050024;28;20451;-74
2024/01/21 12:02:26;;;;;;;8.52;5.60;;;8.10;71.40;;;;;;5044282;28;20041;-74
2024/01/21 12:04:57;;;;;;;7.43;5.85;;;8.70;69.60;;;;;;5044675;28;20465;-71
2024/01/21 12:07:25;;;;;;;;;;;8.50;70.40;;;;;;5049617;28;20111;-72
2024/01/21 12:09:53;;;;;;;8.23;6.30;;;7.50;69.30;;;;;;5050244;28;19916;-72
2024/01/21 12:12:21;;;;;;;8.43;6.25;;;6.90;72.30;;;;;;5046588;28;20045;-70
2024/01/21 12:14:48;;;;;;;7.70;6.07;;;7.00;72.10;;;;;;5037784;28;20116;-73
2024/01/21 12:17:23;;;;;;;8.73;6.55;;;7.20;70.30;;;;;;5037754;28;20048;-73
2024/01/21 12:19:50;;;;;;;9.18;6.63;;;7.40;73.30;;;;;;5040555;28;20045;-73
2024/01/21 12:22:37;;;;;;;;;;;8.90;69.70;;;;;;5036420;28;20033;-73
2024/01/21 12:25:07;;;;;;;7.45;6.05;;;11.40;67.40;;;;;;5036380;28;19986;-76
2024/01/21 12:27:36;;;;;;;9.43;6.40;;;14.30;60.00;;;;;;5022447;28;20030;-74
2024/01/21 12:30:08;;;;;;;8.40;6.65;;;14.40;58.80;;;;;;5029089;28;20335;-77
2024/01/21 12:32:36;;;;;;;8.80;6.28;;;13.70;57.60;;;;;;5044658;28;20033;-76
2024/01/21 12:35:08;;;;;;;10.75;7.97;;;11.10;61.10;;;;;;5048393;28;20107;-72
2024/01/21 12:37:36;;;;;;;13.07;8.43;;;12.20;61.30;;;;;;5045286;28;20068;-73
2024/01/21 12:40:04;;;;;;;10.43;6.47;;;13.70;59.90;;;;;;5016711;28;20097;-74
2024/01/21 12:42:31;;;;;;;8.15;5.40;;;15.80;56.10;;;;;;5045178;28;20374;-74
2024/01/21 12:44:59;;;;;;;9.50;5.15;;;16.50;55.30;;;;;;5042788;28;20041;-74
2024/01/21 12:47:27;;;;;;;11.55;6.70;;;18.80;51.60;;;;;;5046004;28;20048;-76
2024/01/21 12:49:54;;;;;;;8.05;5.10;;;19.30;50.00;;;;;;5042659;28;20029;-76
2024/01/21 12:52:21;;;;;;;7.93;5.00;;;19.00;49.30;;;;;;5045425;28;20091;-76
2024/01/21 12:54:49;;;;;;;8.43;5.18;;;19.30;48.50;;;;;;5041595;28;20061;-75
2024/01/21 12:57:16;;;;;;;8.88;5.63;;;20.10;47.10;;;;;;5047158;28;20479;-76
2024/01/21 12:59:43;;;;;;;8.55;5.97;;;17.50;49.10;;;;;;5037486;28;20041;-74